createdAt,value
2019-04-01T00:02:09.426Z,6.30
2019-04-01T00:04:39.832Z,6.20
2019-04-01T00:07:09.779Z,6.20
2019-04-01T00:09:39.980Z,6.20
2019-04-01T00:12:10.084Z,6.10
2019-04-01T00:14:40.236Z,6.10
2019-04-01T00:17:10.153Z,6.10
2019-04-01T00:19:40.010Z,6.10
2019-04-01T00:22:09.925Z,6.00
2019-04-01T00:24:40.252Z,6.00
2019-04-01T00:27:10.222Z,6.00
2019-04-01T00:29:40.487Z,6.00
2019-04-01T00:32:10.453Z,5.90
2019-04-01T00:34:40.503Z,5.90
2019-04-01T00:37:10.440Z,5.90
2019-04-01T00:39:40.323Z,5.80
2019-04-01T00:42:21.101Z,5.80
2019-04-01T00:44:51.012Z,5.70
2019-04-01T00:47:20.947Z,5.70
2019-04-01T00:49:51.001Z,5.70
2019-04-01T00:52:21.005Z,5.60
2019-04-01T00:54:50.894Z,5.60
2019-04-01T00:57:20.816Z,5.50
2019-04-01T00:59:50.674Z,5.50
2019-04-01T01:02:20.689Z,5.50
2019-04-01T01:04:50.634Z,5.40
2019-04-01T01:07:20.650Z,4.80
2019-04-01T01:09:50.592Z,5.30
2019-04-01T01:12:20.455Z,5.30
2019-04-01T01:14:50.456Z,5.20
2019-04-01T01:17:20.440Z,5.10
2019-04-01T01:19:50.636Z,4.30
2019-04-01T01:22:20.595Z,5.00
2019-04-01T01:24:50.743Z,5.00
2019-04-01T01:27:20.667Z,4.90
2019-04-01T01:29:50.832Z,4.90
2019-04-01T01:32:20.838Z,4.80
2019-04-01T01:34:50.777Z,4.80
2019-04-01T01:37:20.836Z,4.70
2019-04-01T01:39:50.772Z,4.70
2019-04-01T01:42:20.742Z,4.60
2019-04-01T01:44:50.682Z,4.60
2019-04-01T01:47:20.679Z,4.60
2019-04-01T01:49:50.919Z,4.50
2019-04-01T01:52:20.852Z,4.50
2019-04-01T01:54:50.853Z,4.50
2019-04-01T01:57:20.859Z,4.40
2019-04-01T01:59:50.844Z,4.40
2019-04-01T02:02:20.768Z,4.40
2019-04-01T02:04:50.612Z,4.30
2019-04-01T02:07:20.675Z,4.30
2019-04-01T02:09:50.750Z,4.30
2019-04-01T02:12:20.659Z,4.20
2019-04-01T02:14:50.588Z,4.20
2019-04-01T02:17:20.596Z,4.20
2019-04-01T02:19:50.517Z,4.10
2019-04-01T02:22:20.609Z,4.10
2019-04-01T02:24:50.459Z,4.10
2019-04-01T02:27:21.321Z,4.00
2019-04-01T02:29:51.337Z,4.00
2019-04-01T02:32:21.330Z,4.00
2019-04-01T02:34:51.213Z,4.00
2019-04-01T02:37:21.145Z,3.90
2019-04-01T02:39:51.174Z,3.90
2019-04-01T02:42:21.110Z,3.90
2019-04-01T02:44:51.060Z,3.90
2019-04-01T02:47:21.000Z,3.80
2019-04-01T02:49:50.862Z,3.80
2019-04-01T02:52:20.798Z,3.80
2019-04-01T02:54:50.818Z,3.80
2019-04-01T02:57:20.790Z,3.70
2019-04-01T02:59:50.665Z,3.70
2019-04-01T03:02:20.674Z,3.70
2019-04-01T03:04:50.622Z,3.70
2019-04-01T03:07:20.713Z,3.70
2019-04-01T03:09:50.914Z,3.60
2019-04-01T03:12:20.951Z,3.60
2019-04-01T03:14:51.024Z,3.60
2019-04-01T03:17:20.873Z,3.60
2019-04-01T03:19:51.096Z,3.60
2019-04-01T03:22:21.089Z,3.50
2019-04-01T03:24:51.203Z,3.60
2019-04-01T03:27:21.512Z,3.50
2019-04-01T03:29:51.547Z,3.50
2019-04-01T03:32:21.647Z,3.50
2019-04-01T03:34:51.684Z,3.50
2019-04-01T03:37:21.757Z,3.50
2019-04-01T03:39:51.623Z,3.50
2019-04-01T03:42:21.557Z,3.40
2019-04-01T03:44:55.021Z,3.40
2019-04-01T03:47:23.397Z,3.40
2019-04-01T03:49:53.261Z,3.40
2019-04-01T03:52:23.174Z,3.40
2019-04-01T03:54:53.067Z,3.40
2019-04-01T03:57:23.091Z,3.30
2019-04-01T03:59:53.032Z,3.40
2019-04-01T04:02:23.074Z,3.30
2019-04-01T04:04:53.092Z,3.30
2019-04-01T04:07:23.426Z,3.30
2019-04-01T04:09:53.471Z,3.30
2019-04-01T04:12:23.605Z,3.30
2019-04-01T04:14:53.626Z,3.20
2019-04-01T04:17:23.585Z,3.30
2019-04-01T04:19:53.621Z,3.20
2019-04-01T04:22:23.736Z,3.20
2019-04-01T04:24:53.757Z,3.20
2019-04-01T04:27:23.798Z,3.20
2019-04-01T04:29:53.743Z,3.20
2019-04-01T04:32:23.909Z,3.20
2019-04-01T04:34:57.156Z,3.20
2019-04-01T04:37:25.698Z,3.10
2019-04-01T04:39:55.664Z,3.10
2019-04-01T04:42:25.713Z,3.10
2019-04-01T04:44:55.920Z,3.10
2019-04-01T04:47:25.955Z,3.10
2019-04-01T04:49:55.900Z,3.10
2019-04-01T04:52:25.869Z,3.00
2019-04-01T04:54:55.839Z,3.00
2019-04-01T04:57:25.881Z,3.00
2019-04-01T04:59:56.003Z,3.00
2019-04-01T05:02:26.169Z,2.90
2019-04-01T05:04:56.117Z,2.90
2019-04-01T05:07:26.152Z,2.90
2019-04-01T05:09:56.090Z,2.90
2019-04-01T05:12:26.127Z,2.90
2019-04-01T05:14:56.092Z,2.80
2019-04-01T05:17:26.152Z,2.80
2019-04-01T05:19:56.128Z,2.80
2019-04-01T05:22:27.068Z,2.80
2019-04-01T05:24:57.948Z,2.80
2019-04-01T05:27:28.158Z,2.80
2019-04-01T05:30:00.350Z,2.80
2019-04-01T05:32:32.348Z,2.80
2019-04-01T05:35:03.688Z,2.80
2019-04-01T05:37:33.823Z,2.80
2019-04-01T05:40:04.498Z,2.80
2019-04-01T05:42:34.551Z,2.80
2019-04-01T05:45:05.851Z,2.80
2019-04-01T05:47:47.976Z,2.80
2019-04-01T05:50:18.008Z,2.80
2019-04-01T05:52:48.672Z,2.80
2019-04-01T05:55:18.722Z,2.90
2019-04-01T05:57:49.157Z,2.90
2019-04-01T06:00:25.348Z,2.90
2019-04-01T06:02:55.536Z,2.90
2019-04-01T06:05:25.553Z,2.90
2019-04-01T06:07:55.828Z,3.00
2019-04-01T06:10:25.859Z,3.00
2019-04-01T06:12:56.433Z,3.00
2019-04-01T06:15:26.445Z,3.10
2019-04-01T06:17:56.617Z,3.10
2019-04-01T06:20:26.688Z,3.10
2019-04-01T06:22:56.775Z,3.20
2019-04-01T06:25:26.852Z,3.30
2019-04-01T06:27:56.904Z,3.40
2019-04-01T06:30:27.059Z,3.40
2019-04-01T06:32:57.093Z,3.50
2019-04-01T06:35:27.110Z,3.50
2019-04-01T06:37:57.128Z,3.60
2019-04-01T06:40:27.189Z,3.60
2019-04-01T06:42:57.314Z,3.70
2019-04-01T06:45:27.584Z,3.70
2019-04-01T06:47:57.609Z,3.80
2019-04-01T06:50:27.644Z,3.90
2019-04-01T06:52:57.609Z,4.00
2019-04-01T06:55:27.675Z,4.00
2019-04-01T06:57:57.779Z,4.10
2019-04-01T07:00:28.108Z,4.20
2019-04-01T07:02:58.275Z,4.20
2019-04-01T07:05:28.319Z,4.30
2019-04-01T07:07:58.921Z,4.40
2019-04-01T07:10:30.780Z,4.40
2019-04-01T07:13:00.824Z,4.50
2019-04-01T07:15:30.862Z,4.50
2019-04-01T07:18:01.068Z,4.60
2019-04-01T07:20:31.444Z,4.70
2019-04-01T07:23:01.381Z,4.70
2019-04-01T07:25:34.072Z,4.80
2019-04-01T07:28:03.516Z,4.90
2019-04-01T07:30:33.718Z,5.00
2019-04-01T07:33:04.232Z,5.10
2019-04-01T07:35:34.264Z,5.30
2019-04-01T07:38:04.583Z,5.40
2019-04-01T07:40:34.626Z,5.50
2019-04-01T07:43:04.705Z,5.60
2019-04-01T07:45:34.823Z,5.70
2019-04-01T07:48:04.881Z,5.80
2019-04-01T07:50:34.984Z,5.90
2019-04-01T07:53:05.640Z,6.00
2019-04-01T07:55:35.944Z,6.10
2019-04-01T07:58:05.949Z,6.20
2019-04-01T08:00:35.959Z,6.40
2019-04-01T08:03:05.881Z,6.50
2019-04-01T08:05:35.900Z,6.70
2019-04-01T08:08:05.915Z,6.80
2019-04-01T08:10:36.004Z,6.90
2019-04-01T08:13:06.031Z,7.00
2019-04-01T08:15:36.057Z,7.10
2019-04-01T08:18:06.301Z,7.20
2019-04-01T08:20:36.356Z,7.30
2019-04-01T08:23:06.374Z,7.40
2019-04-01T08:25:36.483Z,7.50
2019-04-01T08:28:07.228Z,7.60
2019-04-01T08:30:37.268Z,7.70
2019-04-01T08:33:07.907Z,7.80
2019-04-01T08:35:37.975Z,8.00
2019-04-01T08:38:08.071Z,8.20
2019-04-01T08:40:38.320Z,8.30
2019-04-01T08:43:08.445Z,8.50
2019-04-01T08:45:38.540Z,8.60
2019-04-01T08:48:08.589Z,8.70
2019-04-01T08:50:38.724Z,8.80
2019-04-01T08:53:09.008Z,9.00
2019-04-01T08:55:39.127Z,9.20
2019-04-01T08:58:09.237Z,9.20
2019-04-01T09:00:39.233Z,9.30
2019-04-01T09:03:09.629Z,9.30
2019-04-01T09:05:39.795Z,9.40
2019-04-01T09:08:09.804Z,9.40
2019-04-01T09:10:40.391Z,9.60
2019-04-01T09:13:12.087Z,9.80
2019-04-01T09:15:42.989Z,10.00
2019-04-01T09:18:12.954Z,10.10
2019-04-01T09:20:43.040Z,10.30
2019-04-01T09:23:13.072Z,10.40
2019-04-01T09:25:43.011Z,10.60
2019-04-01T09:28:13.025Z,10.60
2019-04-01T09:30:42.957Z,10.70
2019-04-01T09:33:12.991Z,10.90
2019-04-01T09:35:43.107Z,11.10
2019-04-01T09:38:13.224Z,11.20
2019-04-01T09:40:43.369Z,11.30
2019-04-01T09:43:14.210Z,11.60
2019-04-01T09:45:44.362Z,11.60
2019-04-01T09:48:14.385Z,11.90
2019-04-01T09:50:44.392Z,12.00
2019-04-01T09:53:14.424Z,12.00
2019-04-01T09:55:44.412Z,12.10
2019-04-01T09:58:14.717Z,12.20
2019-04-01T10:00:47.236Z,12.30
2019-04-01T10:03:17.662Z,12.40
2019-04-01T10:05:47.955Z,12.60
2019-04-01T10:08:17.962Z,12.70
2019-04-01T10:10:47.986Z,12.80
2019-04-01T10:13:18.014Z,13.00
2019-04-01T10:15:47.944Z,13.30
2019-04-01T10:18:17.896Z,13.60
2019-04-01T10:20:47.917Z,13.70
2019-04-01T10:23:18.277Z,14.00
2019-04-01T10:25:51.323Z,14.20
2019-04-01T10:28:22.000Z,14.30
2019-04-01T10:30:52.975Z,14.50
2019-04-01T10:33:23.027Z,14.70
2019-04-01T10:35:53.136Z,14.70
2019-04-01T10:38:23.108Z,14.70
2019-04-01T10:40:53.106Z,14.90
2019-04-01T10:43:23.073Z,15.00
2019-04-01T10:45:53.001Z,15.00
2019-04-01T10:48:23.104Z,15.10
2019-04-01T10:50:53.136Z,15.10
2019-04-01T10:53:23.503Z,15.20
2019-04-01T10:55:53.478Z,15.20
2019-04-01T10:58:23.713Z,15.40
2019-04-01T11:00:53.590Z,15.30
2019-04-01T11:03:23.514Z,15.30
2019-04-01T11:05:53.456Z,15.20
2019-04-01T11:08:23.774Z,15.20
2019-04-01T11:10:53.714Z,15.10
2019-04-01T11:13:23.787Z,15.10
2019-04-01T11:15:54.264Z,15.10
2019-04-01T11:18:24.297Z,15.10
2019-04-01T11:20:56.803Z,15.20
2019-04-01T11:23:25.808Z,15.20
2019-04-01T11:25:55.882Z,15.30
2019-04-01T11:28:25.827Z,15.20
2019-04-01T11:30:55.838Z,15.10
2019-04-01T11:33:25.759Z,15.10
2019-04-01T11:35:55.821Z,15.10
2019-04-01T11:38:26.022Z,15.10
2019-04-01T11:40:56.066Z,15.10
2019-04-01T11:43:26.006Z,15.00
2019-04-01T11:45:56.039Z,15.00
2019-04-01T11:48:26.066Z,15.10
2019-04-01T11:50:56.112Z,15.20
2019-04-01T11:53:26.186Z,15.20
2019-04-01T11:55:56.226Z,15.20
2019-04-01T11:58:26.309Z,15.20
2019-04-01T12:00:56.192Z,15.20
2019-04-01T12:03:26.304Z,15.30
2019-04-01T12:05:56.397Z,15.30
2019-04-01T12:08:26.604Z,15.30
2019-04-01T12:10:56.553Z,15.40
2019-04-01T12:13:26.505Z,15.40
2019-04-01T12:15:56.456Z,15.50
2019-04-01T12:18:26.444Z,15.60
2019-04-01T12:20:56.532Z,15.70
2019-04-01T12:23:26.816Z,15.90
2019-04-01T12:25:56.733Z,16.00
2019-04-01T12:28:26.761Z,16.00
2019-04-01T12:30:56.808Z,16.00
2019-04-01T12:33:26.767Z,16.00
2019-04-01T12:35:56.785Z,15.90
2019-04-01T12:38:26.807Z,15.90
2019-04-01T12:40:56.760Z,16.00
2019-04-01T12:43:27.559Z,16.00
2019-04-01T12:45:57.520Z,16.10
2019-04-01T12:48:27.464Z,15.90
2019-04-01T12:50:57.521Z,15.70
2019-04-01T12:53:27.554Z,15.70
2019-04-01T12:55:57.521Z,15.80
2019-04-01T12:58:27.539Z,15.80
2019-04-01T13:01:00.857Z,15.90
2019-04-01T13:03:29.505Z,16.00
2019-04-01T13:06:01.593Z,16.20
2019-04-01T13:08:31.570Z,16.30
2019-04-01T13:11:01.521Z,16.50
2019-04-01T13:13:31.609Z,16.70
2019-04-01T13:16:01.573Z,16.70
2019-04-01T13:18:32.450Z,16.90
2019-04-01T13:21:03.194Z,17.00
2019-04-01T13:23:36.089Z,17.10
2019-04-01T13:26:08.258Z,17.10
2019-04-01T13:28:42.365Z,17.00
2019-04-01T13:31:12.621Z,17.10
2019-04-01T13:33:44.946Z,17.20
2019-04-01T13:36:16.410Z,17.20
2019-04-01T13:38:47.371Z,17.30
2019-04-01T13:41:18.327Z,17.40
2019-04-01T13:43:49.586Z,17.30
2019-04-01T13:46:33.377Z,17.40
2019-04-01T13:49:08.770Z,17.30
2019-04-01T13:51:43.044Z,17.30
2019-04-01T13:54:13.425Z,17.20
2019-04-01T13:56:44.515Z,17.40
2019-04-01T13:59:29.605Z,17.60
2019-04-01T14:02:05.526Z,17.90
2019-04-01T14:04:52.645Z,18.10
2019-04-01T14:07:46.161Z,18.10
2019-04-01T14:10:24.857Z,18.00
2019-04-01T14:13:18.198Z,18.20
2019-04-01T14:15:42.377Z,18.10
2019-04-01T14:18:21.014Z,18.00
2019-04-01T14:20:54.851Z,17.90
2019-04-01T14:23:26.105Z,17.80
2019-04-01T14:26:00.398Z,17.80
2019-04-01T14:28:41.998Z,17.90
2019-04-01T14:31:25.661Z,17.90
2019-04-01T14:34:06.412Z,17.90
2019-04-01T14:36:40.226Z,17.80
2019-04-01T14:39:19.296Z,17.70
2019-04-01T14:41:58.257Z,17.50
2019-04-01T14:47:26.011Z,17.40
2019-04-01T14:49:58.822Z,17.20
2019-04-01T14:52:33.089Z,17.10
2019-04-01T14:55:06.404Z,17.10
2019-04-01T14:57:37.719Z,17.00
2019-04-01T15:00:14.422Z,16.90
2019-04-01T15:02:46.038Z,16.80
2019-04-01T15:05:17.335Z,16.80
2019-04-01T15:07:48.501Z,16.80
2019-04-01T15:10:20.124Z,16.80
2019-04-01T15:13:04.071Z,16.70
2019-04-01T15:15:22.031Z,16.60
2019-04-01T15:17:53.297Z,16.60
2019-04-01T15:20:25.939Z,16.60
2019-04-01T15:22:57.786Z,16.50
2019-04-01T15:25:28.779Z,16.40
2019-04-01T15:28:01.594Z,16.30
2019-04-01T15:30:33.490Z,16.30
2019-04-01T15:33:05.001Z,16.20
2019-04-01T15:35:36.595Z,16.20
2019-04-01T15:38:09.058Z,16.20
2019-04-01T15:40:40.154Z,16.10
2019-04-01T15:43:12.116Z,16.10
2019-04-01T15:45:43.835Z,16.00
2019-04-01T15:48:14.849Z,16.00
2019-04-01T15:50:46.158Z,16.00
2019-04-01T15:53:18.494Z,15.90
2019-04-01T15:55:49.432Z,15.90
2019-04-01T15:58:21.264Z,15.90
2019-04-01T16:00:56.467Z,15.90
2019-04-01T16:03:27.714Z,15.80
2019-04-01T16:05:59.072Z,15.80
2019-04-01T16:08:30.286Z,15.80
2019-04-01T16:11:02.833Z,15.70
2019-04-01T16:13:33.816Z,15.70
2019-04-01T16:16:04.875Z,15.60
2019-04-01T16:18:36.964Z,15.60
2019-04-01T16:21:08.360Z,15.60
2019-04-01T16:23:39.341Z,15.60
2019-04-01T16:26:11.354Z,15.50
2019-04-01T16:28:42.384Z,15.50
2019-04-01T16:31:13.860Z,15.50
2019-04-01T16:33:45.256Z,15.50
2019-04-01T16:36:17.604Z,15.40
2019-04-01T16:38:48.936Z,15.40
2019-04-01T16:41:22.713Z,15.40
2019-04-01T16:43:53.520Z,15.30
2019-04-01T16:46:24.886Z,15.30
2019-04-01T16:48:56.518Z,15.30
2019-04-01T16:51:27.519Z,15.30
2019-04-01T16:53:59.151Z,15.20
2019-04-01T16:56:33.292Z,15.20
2019-04-01T16:59:07.117Z,15.20
2019-04-01T17:01:41.305Z,15.10
2019-04-01T17:04:10.840Z,15.10
2019-04-01T17:06:43.971Z,15.10
2019-04-01T17:09:15.656Z,15.00
2019-04-01T17:11:46.627Z,15.00
2019-04-01T17:14:17.635Z,15.00
2019-04-01T17:16:51.907Z,14.90
2019-04-01T17:19:27.622Z,14.90
2019-04-01T17:21:57.424Z,14.90
2019-04-01T17:24:28.667Z,14.80
2019-04-01T17:27:11.972Z,14.70
2019-04-01T17:29:44.831Z,14.70
2019-04-01T17:32:15.156Z,14.70
2019-04-01T17:34:45.317Z,14.60
2019-04-01T17:37:15.425Z,14.60
2019-04-01T17:39:45.540Z,14.50
2019-04-01T17:42:17.387Z,14.50
2019-04-01T17:44:50.129Z,14.40
2019-04-01T17:47:21.332Z,14.40
2019-04-01T17:49:53.490Z,14.30
2019-04-01T17:52:25.948Z,14.30
2019-04-01T17:54:58.328Z,14.20
2019-04-01T17:57:29.488Z,14.10
2019-04-01T18:00:00.340Z,14.10
2019-04-01T18:02:31.865Z,14.00
2019-04-01T18:05:01.979Z,13.90
2019-04-01T18:07:39.005Z,13.80
2019-04-01T18:10:08.945Z,13.70
2019-04-01T18:12:38.873Z,13.50
2019-04-01T18:15:09.211Z,13.40
2019-04-01T18:17:41.311Z,13.30
2019-04-01T18:20:11.776Z,13.20
2019-04-01T18:22:41.776Z,13.10
2019-04-01T18:25:12.020Z,13.10
2019-04-01T18:27:42.024Z,12.90
2019-04-01T18:30:12.560Z,12.80
2019-04-01T18:32:42.527Z,12.70
2019-04-01T18:35:12.688Z,12.60
2019-04-01T18:37:43.241Z,12.50
2019-04-01T18:40:14.034Z,12.40
2019-04-01T18:42:43.968Z,12.30
2019-04-01T18:45:14.461Z,12.20
2019-04-01T18:47:44.490Z,12.10
2019-04-01T18:50:14.771Z,12.00
2019-04-01T18:52:44.993Z,11.90
2019-04-01T18:55:16.560Z,11.80
2019-04-01T18:57:46.502Z,11.70
2019-04-01T19:00:18.321Z,11.60
2019-04-01T19:02:48.798Z,11.50
2019-04-01T19:05:18.870Z,11.40
2019-04-01T19:07:48.880Z,11.30
2019-04-01T19:10:18.912Z,11.20
2019-04-01T19:12:48.881Z,11.10
2019-04-01T19:15:18.992Z,11.00
2019-04-01T19:17:48.993Z,11.00
2019-04-01T19:20:19.055Z,10.90
2019-04-01T19:22:48.988Z,10.80
2019-04-01T19:25:23.087Z,10.70
2019-04-01T19:27:54.139Z,10.60
2019-04-01T19:30:28.055Z,10.60
2019-04-01T19:32:59.132Z,10.50
2019-04-01T19:35:30.905Z,10.40
2019-04-01T19:38:02.865Z,10.40
2019-04-01T19:40:34.667Z,10.30
2019-04-01T19:43:05.602Z,10.30
2019-04-01T19:45:37.203Z,10.20
2019-04-01T19:48:08.713Z,10.20
2019-04-01T19:50:40.357Z,10.10
2019-04-01T19:53:11.562Z,10.00
2019-04-01T19:55:43.978Z,9.90
2019-04-01T19:58:17.732Z,9.80
2019-04-01T20:00:48.869Z,9.80
2019-04-01T20:03:19.850Z,9.70
2019-04-01T20:05:50.943Z,9.70
2019-04-01T20:08:21.877Z,9.60
2019-04-01T20:10:54.579Z,9.60
2019-04-01T20:13:25.919Z,9.50
2019-04-01T20:15:57.237Z,9.40
2019-04-01T20:18:28.259Z,9.40
2019-04-01T20:21:00.140Z,9.30
2019-04-01T20:23:33.197Z,9.30
2019-04-01T20:26:06.757Z,9.20
2019-04-01T20:28:37.649Z,9.20
2019-04-01T20:31:08.680Z,9.10
2019-04-01T20:33:40.620Z,9.10
2019-04-01T20:36:12.290Z,9.10
2019-04-01T20:38:43.065Z,9.00
2019-04-01T20:41:14.159Z,9.00
2019-04-01T20:43:49.852Z,8.90
2019-04-01T20:46:19.463Z,8.90
2019-04-01T20:48:52.525Z,8.80
2019-04-01T20:51:26.138Z,8.80
2019-04-01T20:54:00.654Z,8.80
2019-04-01T20:56:34.081Z,8.70
2019-04-01T20:59:05.890Z,8.70
2019-04-01T21:01:37.078Z,8.60
2019-04-01T21:04:08.011Z,8.60
2019-04-01T21:06:40.187Z,8.50
2019-04-01T21:09:11.281Z,8.50
2019-04-01T21:11:41.227Z,8.40
2019-04-01T21:14:11.395Z,8.40
2019-04-01T21:16:41.256Z,8.30
2019-04-01T21:19:11.395Z,8.30
2019-04-01T21:21:41.347Z,8.20
2019-04-01T21:24:12.287Z,8.20
2019-04-01T21:26:45.658Z,8.20
2019-04-01T21:29:17.475Z,8.10
2019-04-01T21:31:49.018Z,8.10
2019-04-01T21:34:20.076Z,8.00
2019-04-01T21:36:51.603Z,8.00
2019-04-01T21:39:23.070Z,7.90
2019-04-01T21:41:54.043Z,7.90
2019-04-01T21:44:25.562Z,7.80
2019-04-01T21:46:56.407Z,7.80
2019-04-01T21:49:27.432Z,7.70
2019-04-01T21:51:58.765Z,7.70
2019-04-01T21:54:29.835Z,7.60
2019-04-01T21:57:01.022Z,7.60
2019-04-01T21:59:31.962Z,7.50
2019-04-01T22:02:04.137Z,7.50
2019-04-01T22:04:35.152Z,7.50
2019-04-01T22:07:06.199Z,7.40
2019-04-01T22:09:39.151Z,7.40
2019-04-01T22:12:10.377Z,7.40
2019-04-01T22:14:43.699Z,7.40
2019-04-01T22:17:14.724Z,7.30
2019-04-01T22:19:45.743Z,7.30
2019-04-01T22:22:17.982Z,7.30
2019-04-01T22:24:49.806Z,7.30
2019-04-01T22:27:20.790Z,7.30
2019-04-01T22:29:52.979Z,7.30
2019-04-01T22:32:24.414Z,7.40
2019-04-01T22:34:55.482Z,7.40
2019-04-01T22:37:27.515Z,7.40
2019-04-01T22:39:56.951Z,7.30
2019-04-01T22:42:27.251Z,7.40
2019-04-01T22:44:57.541Z,7.40
2019-04-01T22:47:27.413Z,7.50
2019-04-01T22:49:58.411Z,7.60
2019-04-01T22:52:29.487Z,7.70
2019-04-01T22:55:00.682Z,7.90
2019-04-01T22:57:32.457Z,8.00
2019-04-01T23:00:04.494Z,8.20
2019-04-01T23:02:35.653Z,8.20
2019-04-01T23:05:08.862Z,8.40
2019-04-01T23:07:41.054Z,8.50
2019-04-01T23:10:12.845Z,8.60
2019-04-01T23:12:43.969Z,8.70
2019-04-01T23:15:16.575Z,8.90
2019-04-01T23:17:49.124Z,9.00
2019-04-01T23:20:19.129Z,9.10
2019-04-01T23:22:49.145Z,9.30
2019-04-01T23:25:19.180Z,9.40
2019-04-01T23:27:49.120Z,9.50
2019-04-01T23:30:20.224Z,9.60
2019-04-01T23:32:51.224Z,9.70
2019-04-01T23:35:23.512Z,9.70
2019-04-01T23:37:54.284Z,9.80
2019-04-01T23:40:27.035Z,9.80
2019-04-01T23:42:59.963Z,9.80
2019-04-01T23:45:31.547Z,9.80
2019-04-01T23:48:01.507Z,9.80
2019-04-01T23:50:34.023Z,9.80
2019-04-01T23:53:04.969Z,9.80
2019-04-01T23:55:39.463Z,9.70
2019-04-01T23:58:10.456Z,9.80
